Time;durP1;ratioP1;P1;durP2;ratioP2;P2;SDS_P1;SDS_P2;PMS_P1;PMS_P2;Temp;Humidity;BMP_temperature;BMP_pressure;BME280_temperature;BME280_humidity;BME280_pressure;Samples;Min_cycle;Max_cycle;Signal;HPM_P1;HPM_P2
2023/01/02 00:01:18;;;;;;;6.80;3.23;;;;;;;11.48;70.13;100479.97;5013013;28;20416;-73
2023/01/02 00:03:43;;;;;;;5.72;3.25;;;;;;;11.39;70.28;100474.97;5014285;28;20898;-73
2023/01/02 00:06:08;;;;;;;4.80;3.07;;;;;;;11.31;70.48;100464.56;5014185;28;20480;-73
2023/01/02 00:08:34;;;;;;;6.57;3.23;;;;;;;11.38;70.50;100465.19;5011006;28;20862;-73
2023/01/02 00:10:59;;;;;;;8.37;3.87;;;;;;;11.43;70.42;100472.56;5012037;28;20404;-73
2023/01/02 00:13:24;;;;;;;8.00;3.70;;;;;;;11.44;70.40;100472.34;5012667;28;20488;-74
2023/01/02 00:15:49;;;;;;;7.50;4.30;;;;;;;11.45;70.52;100475.88;5014033;28;20385;-74
2023/01/02 00:18:15;;;;;;;8.37;3.60;;;;;;;11.42;70.49;100476.38;5012693;28;20908;-73
2023/01/02 00:20:40;;;;;;;7.30;3.30;;;;;;;11.42;70.80;100469.06;5012702;28;20452;-73
2023/01/02 00:23:05;;;;;;;5.50;2.73;;;;;;;11.41;70.69;100470.13;5013896;28;20389;-73
2023/01/02 00:25:33;;;;;;;3.80;3.03;;;;;;;11.44;71.00;100475.06;5013788;28;20419;-73
2023/01/02 00:27:59;;;;;;;9.63;3.33;;;;;;;11.48;70.75;100477.25;5012347;28;20397;-73
2023/01/02 00:30:24;;;;;;;6.03;3.60;;;;;;;11.52;70.91;100471.09;5013694;28;20752;-74
2023/01/02 00:32:49;;;;;;;5.00;3.17;;;;;;;11.55;70.58;100438.03;5012123;28;20421;-73
2023/01/02 00:35:15;;;;;;;5.57;3.30;;;;;;;11.30;71.33;100424.91;5012409;28;20737;-73
2023/01/02 00:37:40;;;;;;;5.70;3.27;;;;;;;11.38;71.47;100437.25;5013605;28;20401;-73
2023/01/02 00:40:06;;;;;;;6.20;3.20;;;;;;;11.49;71.12;100444.47;5013454;28;20407;-74
2023/01/02 00:42:31;;;;;;;7.47;3.37;;;;;;;11.57;70.98;100437.75;5013303;28;20751;-73
2023/01/02 00:44:56;;;;;;;6.33;3.70;;;;;;;11.60;70.84;100440.78;5012688;28;20516;-74
2023/01/02 00:47:22;;;;;;;6.20;3.80;;;;;;;11.64;71.25;100438.41;5013323;28;20401;-73
2023/01/02 00:49:47;;;;;;;7.93;3.40;;;;;;;11.66;71.38;100434.34;5013339;28;20864;-73
2023/01/02 00:52:12;;;;;;;4.30;3.50;;;;;;;11.67;71.37;100437.88;5013252;28;20401;-73
2023/01/02 00:54:37;;;;;;;9.33;3.60;;;;;;;11.68;71.43;100431.41;5013283;28;20409;-73
2023/01/02 00:57:03;;;;;;;7.97;3.30;;;;;;;11.68;71.43;100425.97;5013070;28;20776;-73
2023/01/02 00:59:28;;;;;;;5.27;3.20;;;;;;;11.64;71.50;100425.66;5013184;28;20408;-73
2023/01/02 01:01:53;;;;;;;6.77;3.70;;;;;;;11.57;71.43;100429.63;5011818;28;20412;-73
2023/01/02 01:04:18;;;;;;;6.80;3.60;;;;;;;11.61;71.29;100431.59;5012981;28;20409;-73
2023/01/02 01:06:44;;;;;;;5.77;3.23;;;;;;;11.62;71.51;100427.81;5012950;28;20435;-73
2023/01/02 01:09:09;;;;;;;6.57;4.30;;;;;;;11.66;71.67;100428.91;5005072;28;20402;-73
2023/01/02 01:11:34;;;;;;;6.90;3.53;;;;;;;11.68;71.64;100434.13;5009022;28;20393;-73
2023/01/02 01:14:00;;;;;;;6.43;3.70;;;;;;;11.68;71.63;100426.78;5011603;28;20408;-73
2023/01/02 01:16:25;;;;;;;5.40;3.00;;;;;;;11.67;71.61;100419.72;5012755;28;20403;-73
2023/01/02 01:18:54;;;;;;;5.80;3.13;;;;;;;11.69;71.80;100420.28;5013061;28;20476;-73
2023/01/02 01:21:20;;;;;;;8.23;3.35;;;;;;;11.70;71.64;100419.22;5012713;28;20393;-73
2023/01/02 01:23:53;;;;;;;4.22;3.50;;;;;;;11.57;71.92;100414.16;5012465;28;20418;-73
2023/01/02 01:26:20;;;;;;;6.40;3.47;;;;;;;11.55;72.26;100416.31;5012682;28;20392;-73
2023/01/02 01:28:46;;;;;;;4.22;3.20;;;;;;;11.63;72.13;100421.28;5012802;28;20392;-73
2023/01/02 01:31:13;;;;;;;9.73;3.67;;;;;;;11.64;71.73;100413.97;5012486;28;20421;-74
2023/01/02 01:33:41;;;;;;;6.15;3.80;;;;;;;11.60;72.00;100420.97;5012508;28;20396;-73
2023/01/02 01:36:21;;;;;;;6.37;2.87;;;;;;;11.62;71.92;100419.66;5012586;28;20868;-73
2023/01/02 01:38:46;;;;;;;5.63;3.20;;;;;;;11.63;71.79;100423.19;5012308;28;20397;-73
2023/01/02 01:41:14;;;;;;;4.83;3.37;;;;;;;11.64;71.73;100431.06;5012611;28;20393;-74
2023/01/02 01:43:49;;;;;;;5.90;2.97;;;;;;;11.61;71.82;100422.63;5012494;28;20476;-73
2023/01/02 01:46:20;;;;;;;6.43;3.53;;;;;;;11.62;71.79;100418.84;5012346;28;20963;-73
2023/01/02 01:48:48;;;;;;;5.70;3.03;;;;;;;11.62;71.97;100418.84;5012315;28;20447;-73
2023/01/02 01:51:15;;;;;;;6.40;3.65;;;;;;;11.65;71.92;100410.19;5012148;28;20480;-74
2023/01/02 01:53:42;;;;;;;3.15;2.72;;;;;;;11.64;71.88;100397.69;5012265;28;20906;-73
2023/01/02 01:56:11;;;;;;;7.15;3.33;;;;;;;11.66;71.90;100409.09;5011151;28;20500;-73
2023/01/02 01:58:42;;;;;;;6.13;3.35;;;;;;;11.64;71.80;100398.50;5012245;28;20393;-74
2023/01/02 02:01:09;;;;;;;5.82;3.17;;;;;;;11.63;71.98;100399.56;5012189;28;20389;-73
2023/01/02 02:03:36;;;;;;;8.48;3.58;;;;;;;11.65;71.95;100393.91;5012002;28;20484;-74
2023/01/02 02:06:02;;;;;;;6.40;2.63;;;;;;;11.66;72.16;100401.78;5012341;28;20416;-73
2023/01/02 02:08:53;;;;;;;4.63;3.33;;;;;;;11.69;72.10;100401.25;5009815;28;20428;-74
2023/01/02 02:11:19;;;;;;;6.53;3.47;;;;;;;11.72;72.01;100408.13;4998268;28;20388;-74
2023/01/02 02:13:45;;;;;;;6.40;3.03;;;;;;;11.71;72.04;100388.31;5011824;28;20407;-73
2023/01/02 02:16:19;;;;;;;5.88;3.20;;;;;;;11.70;72.08;100386.66;5010684;28;20396;-73
2023/01/02 02:19:16;;;;;;;4.28;2.97;;;;;;;11.74;72.13;100386.97;5012029;28;20393;-74
2023/01/02 02:21:53;;;;;;;4.37;2.67;;;;;;;11.75;72.15;100383.19;5012040;28;20444;-73
2023/01/02 02:24:57;;;;;;;4.65;3.38;;;;;;;11.77;71.98;100379.16;5011896;28;20459;-74
2023/01/02 02:27:37;;;;;;;4.95;3.15;;;;;;;11.79;71.90;100376.97;5012017;28;20475;-73
2023/01/02 02:30:15;;;;;;;5.82;3.15;;;;;;;11.83;72.05;100375.41;5011761;28;20962;-74
2023/01/02 02:33:11;;;;;;;3.40;2.63;;;;;;;11.86;71.55;100364.03;5011547;28;20420;-73
2023/01/02 02:36:03;;;;;;;5.77;2.93;;;;;;;11.97;70.96;100370.41;5011694;28;20484;-73
2023/01/02 02:38:36;;;;;;;4.53;2.72;;;;;;;12.01;70.31;100371.53;5011740;28;21447;-73
2023/01/02 02:41:11;;;;;;;9.75;2.78;;;;;;;12.04;69.63;100364.75;5011764;28;20440;-74
2023/01/02 02:43:58;;;;;;;3.47;2.42;;;;;;;12.09;69.29;100371.06;5011883;28;20432;-73
2023/01/02 02:46:42;;;;;;;5.50;2.73;;;;;;;12.09;69.11;100365.63;5011619;28;20385;-73
2023/01/02 02:49:30;;;;;;;9.07;3.03;;;;;;;12.13;68.64;100368.66;5011303;28;20442;-73
2023/01/02 02:52:01;;;;;;;3.70;3.05;;;;;;;12.15;68.35;100359.16;5011568;28;20392;-74
2023/01/02 02:54:36;;;;;;;6.78;2.83;;;;;;;12.21;67.80;100360.03;5011583;28;20397;-73
2023/01/02 02:57:03;;;;;;;5.27;2.60;;;;;;;12.22;67.65;100354.34;5011659;28;20504;-73
2023/01/02 02:59:29;;;;;;;5.75;2.85;;;;;;;12.15;68.23;100353.72;5011618;28;20512;-74
2023/01/02 03:01:54;;;;;;;7.82;2.67;;;;;;;12.06;68.97;100363.41;5011443;28;20857;-74
2023/01/02 03:04:21;;;;;;;4.13;2.63;;;;;;;11.95;69.39;100354.34;5011296;28;20895;-73
2023/01/02 03:07:20;;;;;;;3.92;2.63;;;;;;;11.89;69.91;100360.81;5010540;28;20435;-73
2023/01/02 03:10:13;;;;;;;5.00;2.80;;;;;;;11.77;70.51;100353.88;5003720;28;20492;-73
2023/01/02 03:12:47;;;;;;;3.28;2.38;;;;;;;11.73;71.00;100356.28;4985597;28;20396;-74
2023/01/02 03:15:15;;;;;;;3.55;2.45;;;;;;;11.70;71.25;100359.50;5015121;28;20393;-73
2023/01/02 03:17:46;;;;;;;3.10;2.80;;;;;;;11.69;71.50;100365.19;5015073;28;20393;-73
2023/01/02 03:20:14;;;;;;;6.00;3.03;;;;;;;11.67;71.53;100362.72;5015187;28;20403;-73
2023/01/02 03:22:45;;;;;;;5.78;3.50;;;;;;;11.66;71.77;100358.34;5014863;28;20424;-73
2023/01/02 03:25:12;;;;;;;7.30;2.85;;;;;;;11.62;72.03;100351.81;5014716;28;20420;-73
2023/01/02 03:27:43;;;;;;;7.65;3.33;;;;;;;11.59;72.04;100355.00;5014762;28;20907;-73
2023/01/02 03:30:13;;;;;;;6.67;2.60;;;;;;;11.59;72.11;100352.28;5014910;28;20439;-73
2023/01/02 03:32:44;;;;;;;3.40;2.60;;;;;;;11.60;72.10;100361.25;5014718;28;20409;-73
2023/01/02 03:35:14;;;;;;;4.78;3.05;;;;;;;11.61;72.25;100362.91;5014828;28;20420;-73
2023/01/02 03:37:44;;;;;;;6.68;2.47;;;;;;;11.60;71.83;100358.53;5013685;28;20479;-73
2023/01/02 03:40:16;;;;;;;5.90;3.33;;;;;;;11.56;71.98;100363.66;5014747;28;20377;-73
2023/01/02 03:42:48;;;;;;;10.85;3.10;;;;;;;11.58;71.88;100361.53;5014613;28;20933;-73
2023/01/02 03:45:23;;;;;;;3.10;2.70;;;;;;;11.60;71.89;100363.97;5014592;28;20427;-73
2023/01/02 03:47:54;;;;;;;6.28;3.17;;;;;;;11.60;72.05;100358.53;5014500;28;20392;-74
2023/01/02 03:50:30;;;;;;;3.90;2.80;;;;;;;11.59;71.87;100352.28;5013332;28;20389;-74
2023/01/02 03:52:56;;;;;;;6.25;3.10;;;;;;;11.59;72.10;100359.63;5014350;28;20493;-73
2023/01/02 03:55:23;;;;;;;3.95;2.92;;;;;;;11.60;72.09;100359.38;5012985;28;20733;-73
2023/01/02 03:58:08;;;;;;;3.08;2.60;;;;;;;11.59;72.45;100359.63;5013188;28;20868;-73
2023/01/02 04:00:41;;;;;;;5.63;2.80;;;;;;;11.59;72.17;100360.44;5014536;28;20430;-73
2023/01/02 04:03:19;;;;;;;6.68;3.13;;;;;;;11.61;72.25;100365.63;5014232;28;20389;-73
2023/01/02 04:05:53;;;;;;;3.13;2.80;;;;;;;11.59;72.27;100365.06;5014213;28;20411;-73
2023/01/02 04:08:25;;;;;;;4.35;2.83;;;;;;;11.61;72.13;100354.75;5013077;28;20934;-73
2023/01/02 04:10:52;;;;;;;6.65;2.95;;;;;;;11.64;72.02;100365.94;5012612;28;20484;-73
2023/01/02 04:13:22;;;;;;;4.35;2.50;;;;;;;11.62;72.03;100362.66;5013911;28;20431;-73
2023/01/02 04:15:50;;;;;;;6.07;3.07;;;;;;;11.60;71.98;100355.81;5014227;28;20508;-73
2023/01/02 04:18:33;;;;;;;4.00;3.00;;;;;;;11.60;72.02;100362.06;5013318;28;20393;-73
2023/01/02 04:21:05;;;;;;;4.20;2.78;;;;;;;11.59;72.05;100355.00;5013312;28;20389;-73
2023/01/02 04:23:36;;;;;;;5.20;3.20;;;;;;;11.59;72.30;100355.00;5013740;28;20397;-73
2023/01/02 04:26:07;;;;;;;5.28;3.33;;;;;;;11.62;72.11;100343.66;5013756;28;20405;-73
2023/01/02 04:28:34;;;;;;;4.55;2.80;;;;;;;11.63;72.19;100358.03;5013801;28;20432;-73
2023/01/02 04:31:11;;;;;;;5.63;3.03;;;;;;;11.60;72.22;100353.94;5013435;28;20399;-73
2023/01/02 04:33:47;;;;;;;4.82;3.00;;;;;;;11.56;72.08;100363.66;5012259;28;20448;-73
2023/01/02 04:36:14;;;;;;;5.50;3.50;;;;;;;11.54;72.17;100354.97;5012259;28;20401;-74
2023/01/02 04:38:44;;;;;;;8.43;3.30;;;;;;;11.52;72.14;100356.28;5013383;28;20453;-73
2023/01/02 04:41:16;;;;;;;6.45;2.95;;;;;;;11.50;72.07;100361.13;5013663;28;20397;-73
2023/01/02 04:43:41;;;;;;;7.30;3.03;;;;;;;11.47;72.18;100351.59;5013398;28;20411;-73
2023/01/02 04:46:06;;;;;;;6.10;3.07;;;;;;;11.45;72.28;100361.91;5013275;28;20475;-74
2023/01/02 04:48:32;;;;;;;6.43;2.83;;;;;;;11.43;72.55;100358.59;5013308;28;20381;-73
2023/01/02 04:50:57;;;;;;;6.17;2.77;;;;;;;11.42;72.44;100352.38;5013315;28;20443;-73
2023/01/02 04:53:22;;;;;;;4.00;2.60;;;;;;;11.40;72.32;100351.81;5013436;28;20992;-73
2023/01/02 04:55:47;;;;;;;7.70;3.30;;;;;;;11.40;72.24;100348.25;5013163;28;20404;-73
2023/01/02 04:58:13;;;;;;;6.83;3.43;;;;;;;11.39;72.29;100352.88;5011920;28;20393;-73
2023/01/02 05:00:38;;;;;;;5.50;3.00;;;;;;;11.39;72.21;100352.06;5013114;28;20385;-73
2023/01/02 05:03:03;;;;;;;4.03;2.33;;;;;;;11.37;72.21;100348.78;5013275;28;20389;-73
2023/01/02 05:05:29;;;;;;;6.30;2.87;;;;;;;11.34;72.45;100358.25;5013021;28;20424;-73
2023/01/02 05:07:56;;;;;;;4.63;2.90;;;;;;;11.33;72.62;100367.44;5012930;28;20405;-73
2023/01/02 05:10:22;;;;;;;3.90;2.90;;;;;;;11.30;72.37;100365.25;5001819;28;20404;-73
2023/01/02 05:12:47;;;;;;;5.07;2.67;;;;;;;11.28;72.05;100364.69;5011767;28;20393;-73
2023/01/02 05:15:12;;;;;;;6.03;3.43;;;;;;;11.25;72.34;100364.38;5012889;28;20400;-74
2023/01/02 05:17:39;;;;;;;6.30;3.17;;;;;;;11.20;72.53;100369.69;5011533;28;20431;-73
2023/01/02 05:20:08;;;;;;;6.82;3.15;;;;;;;11.18;72.44;100367.25;5012618;28;20975;-74
2023/01/02 05:25:17;;;;;;;10.27;2.97;;;;;;;11.15;72.80;100378.59;5011725;28;20495;-73
2023/01/02 05:27:43;;;;;;;9.52;3.30;;;;;;;11.13;72.63;100375.31;5012660;28;20388;-73
2023/01/02 05:30:09;;;;;;;5.93;3.30;;;;;;;11.12;72.77;100381.00;5012471;28;20876;-74
2023/01/02 05:32:34;;;;;;;5.10;2.60;;;;;;;11.10;73.12;100388.56;5012466;28;20401;-73
2023/01/02 05:34:59;;;;;;;6.77;3.13;;;;;;;11.10;73.03;100391.28;5012639;28;20404;-73
2023/01/02 05:37:25;;;;;;;7.43;3.50;;;;;;;11.10;73.12;100397.50;5012357;28;20401;-73
2023/01/02 05:39:50;;;;;;;6.30;3.37;;;;;;;11.11;72.99;100395.63;5012560;28;20396;-73
2023/01/02 05:42:15;;;;;;;5.20;2.57;;;;;;;11.10;72.84;100394.00;5012457;28;20396;-73
2023/01/02 05:44:41;;;;;;;4.00;2.60;;;;;;;11.11;72.95;100395.63;5012216;28;20412;-73
2023/01/02 05:47:06;;;;;;;7.80;2.77;;;;;;;11.10;73.04;100397.50;5012334;28;20462;-73
2023/01/02 05:49:31;;;;;;;8.37;2.67;;;;;;;11.11;72.90;100395.63;5012333;28;20399;-73
2023/01/02 05:51:56;;;;;;;8.20;2.87;;;;;;;11.09;72.87;100395.06;5012301;28;20397;-73
2023/01/02 05:54:22;;;;;;;5.75;3.20;;;;;;;11.08;72.94;100399.66;5012292;28;20407;-74
2023/01/02 05:56:47;;;;;;;8.97;3.30;;;;;;;11.07;72.97;100403.44;5012235;28;20718;-74
2023/01/02 05:59:13;;;;;;;5.27;3.20;;;;;;;11.07;72.83;100403.44;5010971;28;20396;-73
2023/01/02 06:01:38;;;;;;;3.07;2.73;;;;;;;11.07;72.91;100406.16;5012194;28;20384;-74
2023/01/02 06:04:03;;;;;;;3.43;2.80;;;;;;;11.07;73.06;100414.28;5017054;28;20472;-73
2023/01/02 06:06:32;;;;;;;4.53;3.10;;;;;;;11.09;73.04;100412.16;5028129;28;20391;-74
2023/01/02 06:08:59;;;;;;;5.50;2.83;;;;;;;11.09;73.12;100414.03;5019380;28;20385;-73
2023/01/02 06:11:25;;;;;;;7.80;2.85;;;;;;;11.08;73.08;100428.66;5026563;28;20490;-74
2023/01/02 06:13:51;;;;;;;5.50;2.50;;;;;;;11.07;73.18;100430.56;5028132;28;20474;-74
2023/01/02 06:16:16;;;;;;;5.70;2.60;;;;;;;11.06;73.14;100433.53;5027708;28;20391;-74
2023/01/02 06:18:41;;;;;;;5.83;2.70;;;;;;;11.08;73.22;100434.91;5024889;28;20398;-73
2023/01/02 06:21:09;;;;;;;5.23;2.67;;;;;;;11.12;73.29;100443.38;5018952;28;20422;-74
2023/01/02 06:23:35;;;;;;;5.75;3.60;;;;;;;11.17;72.96;100449.69;5025360;28;20395;-74
2023/01/02 06:26:05;;;;;;;5.23;3.53;;;;;;;11.23;72.65;100454.13;5028926;28;20735;-75
2023/01/02 06:28:30;;;;;;;6.45;3.50;;;;;;;11.29;72.54;100446.88;5022078;28;20449;-73
2023/01/02 06:31:08;;;;;;;6.60;3.20;;;;;;;11.31;72.25;100453.69;5026903;28;20391;-74
2023/01/02 06:33:33;;;;;;;5.28;3.25;;;;;;;11.25;72.23;100451.16;5027539;28;20430;-74
2023/01/02 06:36:06;;;;;;;11.90;3.73;;;;;;;11.29;72.21;100455.03;5027025;28;20427;-73
2023/01/02 06:38:32;;;;;;;6.22;3.40;;;;;;;11.29;72.05;100458.56;5025675;28;20395;-73
2023/01/02 06:40:59;;;;;;;8.13;3.37;;;;;;;11.26;71.97;100459.03;5026450;28;20740;-73
2023/01/02 06:43:26;;;;;;;5.90;2.90;;;;;;;11.27;72.02;100459.88;5022987;28;20421;-74
2023/01/02 06:45:52;;;;;;;6.93;3.10;;;;;;;11.28;72.39;100461.53;5013089;28;20895;-73
2023/01/02 06:48:18;;;;;;;4.77;3.17;;;;;;;11.29;72.45;100465.88;5014386;28;20424;-74
2023/01/02 06:50:44;;;;;;;4.95;2.67;;;;;;;11.29;72.40;100466.72;5017440;28;20431;-73
2023/01/02 06:53:10;;;;;;;5.00;2.63;;;;;;;11.29;72.50;100479.44;5022765;28;20498;-74
2023/01/02 06:55:35;;;;;;;7.35;4.15;;;;;;;11.26;72.81;100477.22;5023953;28;20398;-73
2023/01/02 06:58:01;;;;;;;7.23;3.33;;;;;;;11.15;72.79;100486.28;5022875;28;20393;-74
2023/01/02 07:00:26;;;;;;;8.40;3.20;;;;;;;11.16;73.22;100479.78;5025579;28;20399;-74
2023/01/02 07:02:51;;;;;;;6.33;2.93;;;;;;;11.20;72.76;100494.47;5023655;28;20769;-73
2023/01/02 07:05:17;;;;;;;5.80;3.17;;;;;;;11.20;73.07;100484.44;5025417;28;20434;-73
2023/01/02 07:07:42;;;;;;;5.32;3.10;;;;;;;11.20;73.16;100483.63;5021806;28;20512;-74
2023/01/02 07:10:08;;;;;;;6.87;3.10;;;;;;;11.18;73.13;100481.19;5007544;28;20454;-73
2023/01/02 07:12:35;;;;;;;7.75;2.97;;;;;;;11.18;73.25;100483.91;5025194;28;20404;-74
2023/01/02 07:15:01;;;;;;;6.80;3.03;;;;;;;11.19;73.10;100480.13;5025545;28;20758;-74
2023/01/02 07:17:26;;;;;;;5.00;2.87;;;;;;;11.20;73.06;100480.91;5022550;28;20403;-74
2023/01/02 07:19:51;;;;;;;12.45;5.50;;;;;;;11.24;73.08;100498.34;5015509;28;20400;-73
2023/01/02 07:22:16;;;;;;;21.40;9.07;;;;;;;11.26;72.96;100479.94;5022192;28;20762;-74
2023/01/02 07:24:42;;;;;;;19.77;9.23;;;;;;;11.28;72.37;100488.66;5021979;28;20413;-73
2023/01/02 07:27:07;;;;;;;24.97;11.17;;;;;;;11.31;72.48;100493.56;5023932;28;20467;-74
2023/01/02 07:29:32;;;;;;;17.03;9.07;;;;;;;11.34;72.23;100495.78;5013727;28;20408;-74
2023/01/02 07:31:57;;;;;;;23.60;9.90;;;;;;;11.36;72.30;100499.88;5010271;28;20467;-73
2023/01/02 07:34:22;;;;;;;18.00;7.13;;;;;;;11.38;71.66;100497.75;5013477;28;20775;-73
2023/01/02 07:36:48;;;;;;;15.57;7.72;;;;;;;11.43;71.44;100507.84;5012824;28;20400;-73
2023/01/02 07:39:13;;;;;;;8.77;4.10;;;;;;;11.43;71.21;100508.69;5007290;28;20441;-74
2023/01/02 07:41:38;;;;;;;10.03;4.10;;;;;;;11.45;71.09;100505.72;5010767;28;20416;-74
2023/01/02 07:44:04;;;;;;;11.87;5.00;;;;;;;11.44;71.17;100501.38;5026892;28;20438;-74
2023/01/02 07:46:29;;;;;;;9.05;4.55;;;;;;;11.46;70.98;100510.06;5023141;28;20391;-73
2023/01/02 07:48:54;;;;;;;11.90;5.20;;;;;;;11.46;71.11;100507.34;5023895;28;20407;-73
2023/01/02 07:51:20;;;;;;;13.05;4.20;;;;;;;11.45;71.35;100508.44;5023982;28;20407;-73
2023/01/02 07:53:45;;;;;;;10.97;5.00;;;;;;;11.46;71.30;100513.59;5025916;28;20937;-73
2023/01/02 07:56:11;;;;;;;9.95;4.78;;;;;;;11.48;71.43;100526.13;5026759;28;20968;-74
2023/01/02 07:58:36;;;;;;;9.57;4.03;;;;;;;11.49;71.22;100525.06;5015937;28;20401;-72
2023/01/02 08:01:07;;;;;;;7.50;4.67;;;;;;;11.50;71.12;100530.22;5003454;28;20404;-73
2023/01/02 08:03:32;;;;;;;12.50;5.32;;;;;;;11.52;71.13;100532.69;5013987;28;20401;-74
2023/01/02 08:06:17;;;;;;;8.70;4.43;;;;;;;11.52;71.11;100530.81;5013893;28;20489;-73
2023/01/02 08:08:43;;;;;;;7.70;5.17;;;;;;;11.53;71.07;100539.75;5013699;28;20466;-74
2023/01/02 08:11:11;;;;;;;10.60;5.33;;;;;;;11.55;71.36;100543.03;5011248;28;20492;-73
2023/01/02 08:13:37;;;;;;;10.18;3.75;;;;;;;11.53;71.16;100542.47;5027252;28;20475;-74
2023/01/02 08:16:11;;;;;;;11.02;5.03;;;;;;;11.55;71.12;100535.72;5013809;28;20408;-73
2023/01/02 08:18:37;;;;;;;7.80;4.88;;;;;;;11.58;71.21;100542.53;5013043;28;20830;-74
2023/01/02 08:21:03;;;;;;;9.82;4.93;;;;;;;11.60;71.46;100549.38;5013159;28;20488;-73
2023/01/02 08:23:29;;;;;;;10.45;5.20;;;;;;;11.63;71.54;100548.03;5012625;28;20405;-73
2023/01/02 08:26:01;;;;;;;11.00;5.20;;;;;;;11.65;71.24;100549.44;5006824;28;20768;-74
2023/01/02 08:28:27;;;;;;;16.23;5.97;;;;;;;11.68;71.43;100558.97;5013014;28;20401;-73
2023/01/02 08:30:52;;;;;;;11.83;6.67;;;;;;;11.72;71.37;100562.88;5010646;28;20492;-74
2023/01/02 08:33:18;;;;;;;14.33;6.80;;;;;;;11.77;71.35;100568.38;5017245;28;20788;-74
2023/01/02 08:35:44;;;;;;;18.45;9.00;;;;;;;11.82;71.26;100563.03;5015608;28;20407;-73
2023/01/02 08:38:09;;;;;;;20.07;9.53;;;;;;;11.90;71.22;100574.28;5011778;28;20432;-75
2023/01/02 08:40:34;;;;;;;20.97;9.77;;;;;;;11.99;70.54;100579.28;5015077;28;20407;-74
2023/01/02 08:42:59;;;;;;;20.73;8.40;;;;;;;12.06;70.30;100578.00;5016230;28;20815;-74
2023/01/02 08:45:24;;;;;;;16.00;6.80;;;;;;;12.14;69.92;100587.63;5012547;28;20428;-73
2023/01/02 08:47:50;;;;;;;12.70;5.47;;;;;;;12.20;69.33;100594.75;5006219;28;20405;-74
2023/01/02 08:50:15;;;;;;;13.13;5.83;;;;;;;12.34;68.63;100601.47;5010021;28;20416;-73
2023/01/02 08:52:40;;;;;;;14.47;8.60;;;;;;;12.63;67.82;100596.63;5015315;28;20405;-74
2023/01/02 08:55:06;;;;;;;19.57;10.80;;;;;;;12.86;66.64;100596.34;5007712;28;21100;-73
2023/01/02 08:57:32;;;;;;;20.13;9.50;;;;;;;12.97;65.82;100596.19;5006909;28;20443;-73
2023/01/02 08:59:57;;;;;;;21.75;10.38;;;;;;;12.93;66.03;100605.97;5012560;28;20471;-73
2023/01/02 09:02:22;;;;;;;14.37;7.93;;;;;;;12.85;66.09;100602.84;4993987;28;20772;-74
2023/01/02 09:04:47;;;;;;;8.83;5.17;;;;;;;12.75;66.30;100602.75;5009841;28;20417;-74
2023/01/02 09:07:13;;;;;;;8.40;3.63;;;;;;;12.69;66.56;100609.22;5012871;28;20415;-73
2023/01/02 09:09:38;;;;;;;6.20;2.83;;;;;;;12.64;66.15;100615.44;5008354;28;20420;-74
2023/01/02 09:12:03;;;;;;;4.20;3.03;;;;;;;12.65;66.01;100616.22;5020528;28;20411;-74
2023/01/02 09:14:29;;;;;;;5.38;2.80;;;;;;;12.63;65.87;100632.81;5004959;28;20405;-73
2023/01/02 09:16:56;;;;;;;4.70;3.47;;;;;;;12.61;65.74;100647.75;5012851;28;20405;-74
2023/01/02 09:19:22;;;;;;;5.22;3.45;;;;;;;12.57;65.38;100644.72;5008550;28;20411;-74
2023/01/02 09:21:47;;;;;;;4.60;2.58;;;;;;;12.61;65.28;100642.31;5008627;28;20484;-73
2023/01/02 09:24:12;;;;;;;9.23;3.73;;;;;;;12.67;64.85;100657.59;5006566;28;20950;-73
2023/01/02 09:26:40;;;;;;;7.50;4.07;;;;;;;12.77;64.60;100655.00;5006788;28;20427;-74
2023/01/02 09:29:05;;;;;;;7.93;3.75;;;;;;;12.89;64.29;100645.63;5011230;28;20564;-74
2023/01/02 09:31:31;;;;;;;10.33;4.60;;;;;;;12.95;63.59;100654.66;5011817;28;20448;-73
2023/01/02 09:33:56;;;;;;;8.73;3.60;;;;;;;12.96;63.39;100653.59;5010656;28;20756;-74
2023/01/02 09:36:21;;;;;;;7.07;3.33;;;;;;;12.91;63.33;100648.06;5009360;28;20447;-74
2023/01/02 09:38:55;;;;;;;5.33;3.00;;;;;;;12.94;63.02;100651.09;5009988;28;20403;-74
2023/01/02 09:41:20;;;;;;;4.93;2.80;;;;;;;12.93;62.99;100662.25;5009168;28;20481;-73
2023/01/02 09:43:52;;;;;;;4.93;3.27;;;;;;;12.93;62.58;100663.06;5009545;28;20412;-74
2023/01/02 09:46:23;;;;;;;7.45;3.50;;;;;;;12.98;62.40;100663.13;5011114;28;20748;-73
2023/01/02 09:48:48;;;;;;;11.02;3.38;;;;;;;13.02;62.27;100669.69;5012311;28;20880;-74
2023/01/02 09:51:14;;;;;;;8.43;3.40;;;;;;;13.07;61.74;100673.56;5008417;28;20416;-74
2023/01/02 09:53:39;;;;;;;9.90;3.53;;;;;;;13.12;61.29;100674.47;5011004;28;20408;-73
2023/01/02 09:56:31;;;;;;;9.23;2.47;;;;;;;13.21;60.78;100689.25;5010647;28;20511;-74
2023/01/02 09:59:15;;;;;;;7.97;2.40;;;;;;;13.26;60.70;100688.47;5011652;28;20443;-74
2023/01/02 10:02:09;;;;;;;8.80;2.70;;;;;;;13.33;60.38;100694.53;5009397;28;20838;-74
2023/01/02 10:05:24;;;;;;;6.50;3.38;;;;;;;13.40;59.52;100687.78;5009896;28;20404;-73
2023/01/02 10:08:04;;;;;;;7.95;3.70;;;;;;;13.53;59.51;100687.38;4969896;28;20434;-74
2023/01/02 10:10:53;;;;;;;9.35;3.45;;;;;;;13.67;58.68;100685.03;5002710;28;20499;-73
2023/01/02 10:13:30;;;;;;;8.43;3.22;;;;;;;13.81;58.55;100685.44;5004907;28;20911;-74
2023/01/02 10:15:59;;;;;;;8.05;2.75;;;;;;;13.87;58.02;100687.09;5011260;28;20389;-73
2023/01/02 10:18:37;;;;;;;6.30;3.35;;;;;;;13.84;58.45;100698.53;5010996;28;20846;-73
2023/01/02 10:21:08;;;;;;;8.00;3.07;;;;;;;13.83;58.38;100692.25;4997580;28;20412;-73
2023/01/02 10:23:41;;;;;;;9.50;3.58;;;;;;;13.80;58.34;100700.94;5010209;28;20424;-74
2023/01/02 10:26:14;;;;;;;8.50;2.97;;;;;;;13.79;58.41;100702.06;5011884;28;20427;-74
2023/01/02 10:28:45;;;;;;;5.50;3.00;;;;;;;13.72;58.54;100697.91;5009325;28;20744;-73
2023/01/02 10:31:17;;;;;;;5.53;3.20;;;;;;;13.68;58.31;100699.50;5011393;28;20816;-74
2023/01/02 10:33:52;;;;;;;10.20;3.35;;;;;;;13.71;58.18;100694.34;5010880;28;20405;-74
2023/01/02 10:36:27;;;;;;;7.03;2.90;;;;;;;13.74;58.40;100701.16;5011489;28;20891;-73
2023/01/02 10:38:57;;;;;;;15.00;4.95;;;;;;;13.79;58.44;100701.22;5011626;28;20491;-73
2023/01/02 10:41:24;;;;;;;19.23;5.63;;;;;;;13.88;57.89;100702.38;5011788;28;20496;-73
2023/01/02 10:43:54;;;;;;;10.23;3.80;;;;;;;13.93;57.66;100700.50;5011303;28;20404;-73
2023/01/02 10:46:20;;;;;;;7.32;2.88;;;;;;;14.00;57.98;100692.09;5008617;28;20495;-73
2023/01/02 10:48:47;;;;;;;10.77;3.80;;;;;;;14.06;57.73;100695.72;5011617;28;20527;-74
2023/01/02 10:51:15;;;;;;;10.98;2.97;;;;;;;14.13;57.50;100697.09;5009196;28;20416;-73
2023/01/02 10:53:40;;;;;;;9.87;2.93;;;;;;;14.17;57.23;100686.50;5011512;28;20894;-73
2023/01/02 10:56:17;;;;;;;12.67;3.37;;;;;;;14.19;57.30;100685.19;5009074;28;20392;-74
2023/01/02 10:58:47;;;;;;;10.02;3.05;;;;;;;14.21;57.17;100687.63;5009112;28;20407;-74
2023/01/02 11:01:17;;;;;;;9.20;3.65;;;;;;;14.24;57.19;100687.09;5010620;28;20416;-74
2023/01/02 11:03:44;;;;;;;11.85;3.03;;;;;;;14.30;56.90;100691.50;5004551;28;20408;-75
2023/01/02 11:06:30;;;;;;;9.68;3.40;;;;;;;14.36;56.74;100694.00;5011370;28;20400;-74
2023/01/02 11:09:00;;;;;;;15.48;4.70;;;;;;;14.39;56.52;100688.03;5010589;28;20414;-73
2023/01/02 11:11:27;;;;;;;14.23;3.58;;;;;;;14.48;56.00;100691.91;5011433;28;20463;-74
2023/01/02 11:13:54;;;;;;;15.73;3.95;;;;;;;14.55;55.94;100694.41;5011648;28;20389;-73
2023/01/02 11:16:22;;;;;;;13.68;3.35;;;;;;;14.63;55.50;100693.88;5011600;28;20434;-73
2023/01/02 11:18:51;;;;;;;10.65;2.05;;;;;;;14.72;55.82;100696.94;5011333;28;20388;-73
2023/01/02 11:21:24;;;;;;;13.75;3.15;;;;;;;14.82;55.41;100694.25;5010469;28;20416;-73
2023/01/02 11:23:56;;;;;;;6.85;2.35;;;;;;;14.94;55.20;100686.66;5011140;28;20730;-73
2023/01/02 11:26:23;;;;;;;11.00;3.58;;;;;;;15.05;55.07;100680.13;5011243;28;20752;-74
2023/01/02 11:28:52;;;;;;;11.05;3.63;;;;;;;15.06;54.81;100677.13;5011443;28;20385;-73
